createdAt,value
2018-03-27T00:00:47.076Z,88.29
2018-03-27T00:01:47.093Z,88.20
2018-03-27T00:02:47.112Z,88.96
2018-03-27T00:03:47.131Z,88.77
2018-03-27T00:04:47.148Z,88.96
2018-03-27T00:05:47.172Z,88.96
2018-03-27T00:06:47.187Z,88.87
2018-03-27T00:07:47.203Z,88.87
2018-03-27T00:08:47.222Z,89.43
2018-03-27T00:09:47.243Z,89.96
2018-03-27T00:10:47.264Z,89.77
2018-03-27T00:11:47.277Z,90.53
2018-03-27T00:12:47.293Z,90.53
2018-03-27T00:13:47.314Z,90.38
2018-03-27T00:14:47.334Z,90.95
2018-03-27T00:15:47.352Z,90.72
2018-03-27T00:16:47.371Z,90.67
2018-03-27T00:17:47.387Z,89.86
2018-03-27T00:18:47.410Z,90.10
2018-03-27T00:19:47.426Z,89.43
2018-03-27T00:20:47.442Z,89.72
2018-03-27T00:21:47.461Z,89.81
2018-03-27T00:22:47.481Z,89.81
2018-03-27T00:23:47.507Z,90.57
2018-03-27T00:24:47.516Z,90.48
2018-03-27T00:25:47.541Z,90.57
2018-03-27T00:26:47.556Z,90.48
2018-03-27T00:27:47.577Z,90.38
2018-03-27T00:28:47.591Z,90.67
2018-03-27T00:29:47.613Z,90.15
2018-03-27T00:30:47.634Z,90.48
2018-03-27T00:31:47.647Z,90.43
2018-03-27T00:32:47.671Z,90.19
2018-03-27T00:33:47.689Z,90.29
2018-03-27T00:34:47.701Z,90.38
2018-03-27T00:35:47.723Z,90.48
2018-03-27T00:36:47.741Z,90.38
2018-03-27T00:37:47.760Z,90.38
2018-03-27T00:38:47.781Z,90.29
2018-03-27T00:39:47.796Z,89.43
2018-03-27T00:40:47.815Z,89.62
2018-03-27T00:41:47.831Z,89.62
2018-03-27T00:42:47.850Z,90.10
2018-03-27T00:43:47.871Z,89.62
2018-03-27T00:44:47.887Z,89.06
2018-03-27T00:45:47.906Z,88.48
2018-03-27T00:46:47.926Z,88.77
2018-03-27T00:47:47.946Z,89.15
2018-03-27T00:48:47.965Z,89.43
2018-03-27T00:49:47.985Z,89.15
2018-03-27T00:50:47.996Z,89.72
2018-03-27T00:51:48.024Z,89.72
2018-03-27T00:52:48.034Z,88.77
2018-03-27T00:53:48.054Z,88.39
2018-03-27T00:54:48.076Z,88.10
2018-03-27T00:55:48.093Z,88.58
2018-03-27T00:56:48.113Z,88.68
2018-03-27T00:57:48.130Z,89.06
2018-03-27T00:58:48.147Z,89.25
2018-03-27T00:59:48.168Z,88.68
2018-03-27T01:00:48.180Z,89.25
2018-03-27T01:01:48.202Z,89.62
2018-03-27T01:02:48.226Z,90.29
2018-03-27T01:03:48.240Z,89.53
2018-03-27T01:04:48.258Z,90.10
2018-03-27T01:05:48.275Z,90.38
2018-03-27T01:06:48.303Z,90.15
2018-03-27T01:07:48.314Z,91.09
2018-03-27T01:08:48.331Z,91.09
2018-03-27T01:09:48.348Z,90.53
2018-03-27T01:10:48.369Z,91.28
2018-03-27T01:11:48.391Z,90.53
2018-03-27T01:12:48.408Z,90.95
2018-03-27T01:13:48.432Z,90.38
2018-03-27T01:14:48.448Z,90.67
2018-03-27T01:15:48.464Z,90.67
2018-03-27T01:16:48.480Z,89.72
2018-03-27T01:17:48.498Z,89.91
2018-03-27T01:18:48.519Z,89.81
2018-03-27T01:19:48.537Z,89.91
2018-03-27T01:20:48.556Z,89.81
2018-03-27T01:21:48.573Z,88.77
2018-03-27T01:22:48.597Z,88.10
2018-03-27T01:23:48.610Z,87.45
2018-03-27T01:24:48.629Z,87.54
2018-03-27T01:25:48.651Z,87.01
2018-03-27T01:26:48.663Z,86.44
2018-03-27T01:27:48.705Z,86.35
2018-03-27T01:28:48.702Z,86.63
2018-03-27T01:29:48.718Z,86.16
2018-03-27T01:30:48.743Z,86.35
2018-03-27T01:31:48.760Z,86.25
2018-03-27T01:32:48.781Z,86.54
2018-03-27T01:33:48.796Z,86.49
2018-03-27T01:34:48.818Z,86.07
2018-03-27T01:35:48.836Z,86.44
2018-03-27T01:36:48.852Z,86.16
2018-03-27T01:37:48.873Z,85.97
2018-03-27T01:38:48.887Z,86.35
2018-03-27T01:39:48.907Z,86.25
2018-03-27T01:40:48.927Z,86.25
2018-03-27T01:41:49.198Z,85.49
2018-03-27T01:42:48.962Z,85.40
2018-03-27T01:43:48.982Z,85.59
2018-03-27T01:44:49.004Z,85.11
2018-03-27T01:45:49.017Z,85.59
2018-03-27T01:46:49.042Z,85.49
2018-03-27T01:47:49.057Z,85.49
2018-03-27T01:48:49.076Z,85.40
2018-03-27T01:49:49.100Z,85.83
2018-03-27T01:50:49.116Z,86.30
2018-03-27T01:51:49.382Z,86.59
2018-03-27T01:52:49.157Z,86.97
2018-03-27T01:53:49.171Z,87.63
2018-03-27T01:54:49.187Z,87.45
2018-03-27T01:55:49.211Z,88.01
2018-03-27T01:56:49.225Z,87.39
2018-03-27T01:57:49.246Z,86.68
2018-03-27T01:58:49.261Z,86.11
2018-03-27T01:59:49.284Z,86.49
2018-03-27T02:00:49.300Z,86.78
2018-03-27T02:01:49.575Z,86.44
2018-03-27T02:02:49.336Z,86.44
2018-03-27T02:03:49.357Z,86.35
2018-03-27T02:04:49.376Z,85.97
2018-03-27T02:05:49.394Z,85.97
2018-03-27T02:06:49.410Z,85.78
2018-03-27T02:07:49.430Z,85.97
2018-03-27T02:08:49.451Z,85.30
2018-03-27T02:09:49.472Z,85.30
2018-03-27T02:10:49.486Z,85.40
2018-03-27T02:11:49.508Z,85.40
2018-03-27T02:12:49.529Z,85.49
2018-03-27T02:13:49.544Z,85.59
2018-03-27T02:14:49.570Z,85.68
2018-03-27T02:15:49.636Z,85.59
2018-03-27T02:16:49.600Z,85.78
2018-03-27T02:17:49.621Z,85.87
2018-03-27T02:18:49.641Z,85.78
2018-03-27T02:19:49.655Z,86.49
2018-03-27T02:20:49.677Z,86.68
2018-03-27T02:21:49.695Z,86.25
2018-03-27T02:22:49.710Z,86.21
2018-03-27T02:23:49.735Z,86.49
2018-03-27T02:24:49.749Z,86.16
2018-03-27T02:25:49.767Z,86.30
2018-03-27T02:26:49.785Z,86.87
2018-03-27T02:27:49.809Z,86.78
2018-03-27T02:28:49.825Z,86.87
2018-03-27T02:29:49.844Z,87.06
2018-03-27T02:30:49.861Z,87.25
2018-03-27T02:31:49.888Z,87.54
2018-03-27T02:32:50.151Z,87.73
2018-03-27T02:33:49.927Z,87.82
2018-03-27T02:34:49.948Z,88.10
2018-03-27T02:35:49.959Z,88.20
2018-03-27T02:36:49.972Z,88.68
2018-03-27T02:37:50.001Z,88.96
2018-03-27T02:38:50.015Z,88.20
2018-03-27T02:39:50.029Z,88.10
2018-03-27T02:40:50.052Z,87.82
2018-03-27T02:41:50.071Z,87.25
2018-03-27T02:42:50.090Z,87.35
2018-03-27T02:43:50.108Z,87.35
2018-03-27T02:44:50.125Z,86.97
2018-03-27T02:45:50.145Z,87.45
2018-03-27T02:46:50.163Z,87.73
2018-03-27T02:47:50.180Z,88.10
2018-03-27T02:48:50.206Z,88.01
2018-03-27T02:49:50.221Z,87.92
2018-03-27T02:50:50.238Z,87.25
2018-03-27T02:51:50.256Z,87.35
2018-03-27T02:52:50.273Z,87.06
2018-03-27T02:53:50.295Z,87.11
2018-03-27T02:54:50.314Z,86.63
2018-03-27T02:55:50.333Z,86.63
2018-03-27T02:56:50.349Z,86.82
2018-03-27T02:57:50.369Z,86.87
2018-03-27T02:58:50.390Z,86.78
2018-03-27T02:59:50.412Z,86.72
2018-03-27T03:00:50.422Z,86.44
2018-03-27T03:01:50.443Z,86.25
2018-03-27T03:02:50.463Z,86.35
2018-03-27T03:03:50.491Z,86.44
2018-03-27T03:04:50.501Z,86.07
2018-03-27T03:05:50.517Z,86.63
2018-03-27T03:06:50.540Z,86.30
2018-03-27T03:07:50.561Z,86.63
2018-03-27T03:08:50.576Z,86.82
2018-03-27T03:09:50.592Z,86.35
2018-03-27T03:10:50.611Z,86.35
2018-03-27T03:11:50.632Z,86.16
2018-03-27T03:12:50.655Z,86.16
2018-03-27T03:13:50.668Z,86.44
2018-03-27T03:14:50.688Z,85.68
2018-03-27T03:15:50.707Z,85.68
2018-03-27T03:16:50.731Z,85.40
2018-03-27T03:17:50.742Z,85.68
2018-03-27T03:18:50.766Z,85.78
2018-03-27T03:19:51.038Z,85.97
2018-03-27T03:20:50.800Z,86.16
2018-03-27T03:21:50.816Z,86.63
2018-03-27T03:22:50.841Z,86.44
2018-03-27T03:23:50.856Z,86.72
2018-03-27T03:24:50.873Z,87.01
2018-03-27T03:25:50.891Z,87.30
2018-03-27T03:26:50.914Z,86.82
2018-03-27T03:27:50.936Z,86.44
2018-03-27T03:28:50.951Z,86.54
2018-03-27T03:29:50.966Z,86.54
2018-03-27T03:30:50.990Z,86.63
2018-03-27T03:31:51.006Z,86.63
2018-03-27T03:32:51.021Z,86.44
2018-03-27T03:33:51.044Z,86.82
2018-03-27T03:34:51.065Z,86.82
2018-03-27T03:35:51.082Z,86.54
2018-03-27T03:36:51.095Z,86.25
2018-03-27T03:37:51.120Z,86.07
2018-03-27T03:38:51.136Z,85.97
2018-03-27T03:39:51.160Z,85.97
2018-03-27T03:40:51.172Z,86.25
2018-03-27T03:41:51.190Z,86.25
2018-03-27T03:42:51.209Z,86.35
2018-03-27T03:43:51.234Z,86.54
2018-03-27T03:44:51.245Z,86.35
2018-03-27T03:45:51.269Z,86.72
2018-03-27T03:46:51.285Z,86.91
2018-03-27T03:47:51.308Z,86.82
2018-03-27T03:48:51.320Z,86.54
2018-03-27T03:49:51.343Z,86.63
2018-03-27T03:50:51.358Z,85.97
2018-03-27T03:51:51.380Z,86.35
2018-03-27T03:52:51.400Z,86.44
2018-03-27T03:53:51.415Z,86.44
2018-03-27T03:54:51.444Z,86.07
2018-03-27T03:55:51.454Z,86.54
2018-03-27T03:56:51.469Z,86.25
2018-03-27T03:57:51.488Z,86.63
2018-03-27T03:58:51.510Z,86.07
2018-03-27T03:59:51.528Z,85.97
2018-03-27T04:00:51.549Z,86.07
2018-03-27T04:01:51.568Z,86.25
2018-03-27T04:02:51.589Z,86.25
2018-03-27T04:03:51.608Z,86.54
2018-03-27T04:04:51.622Z,86.82
2018-03-27T04:05:51.639Z,86.72
2018-03-27T04:06:51.658Z,87.01
2018-03-27T04:07:51.685Z,87.01
2018-03-27T04:08:51.700Z,87.11
2018-03-27T04:09:51.719Z,87.30
2018-03-27T04:10:51.738Z,87.20
2018-03-27T04:11:51.753Z,87.11
2018-03-27T04:12:51.777Z,87.20
2018-03-27T04:13:51.788Z,87.30
2018-03-27T04:14:51.808Z,87.30
2018-03-27T04:15:51.832Z,87.49
2018-03-27T04:16:51.858Z,87.39
2018-03-27T04:17:51.863Z,87.20
2018-03-27T04:18:51.883Z,87.01
2018-03-27T04:19:51.930Z,87.11
2018-03-27T04:20:51.921Z,87.11
2018-03-27T04:21:51.949Z,87.49
2018-03-27T04:22:51.961Z,87.39
2018-03-27T04:23:51.981Z,87.11
2018-03-27T04:24:51.992Z,87.30
2018-03-27T04:25:52.013Z,87.20
2018-03-27T04:26:52.032Z,87.68
2018-03-27T04:27:52.048Z,87.96
2018-03-27T04:28:52.076Z,88.15
2018-03-27T04:29:52.088Z,88.06
2018-03-27T04:30:52.102Z,88.06
2018-03-27T04:31:52.128Z,88.06
2018-03-27T04:32:52.142Z,88.15
2018-03-27T04:33:52.166Z,87.49
2018-03-27T04:34:52.444Z,87.96
2018-03-27T04:35:52.200Z,87.39
2018-03-27T04:36:52.211Z,87.68
2018-03-27T04:37:52.233Z,87.49
2018-03-27T04:38:52.252Z,87.20
2018-03-27T04:39:52.277Z,87.11
2018-03-27T04:40:52.297Z,86.82
2018-03-27T04:41:52.306Z,86.72
2018-03-27T04:42:52.327Z,86.82
2018-03-27T04:43:52.345Z,86.82
2018-03-27T04:44:52.366Z,87.30
2018-03-27T04:45:52.386Z,87.30
2018-03-27T04:46:52.403Z,87.39
2018-03-27T04:47:52.433Z,87.30
2018-03-27T04:48:52.437Z,87.01
2018-03-27T04:49:52.457Z,87.20
2018-03-27T04:50:52.476Z,86.91
2018-03-27T04:51:52.491Z,86.63
2018-03-27T04:52:52.512Z,86.91
2018-03-27T04:53:52.531Z,86.82
2018-03-27T04:54:52.550Z,87.01
2018-03-27T04:55:52.573Z,86.91
2018-03-27T04:56:52.586Z,86.63
2018-03-27T04:57:52.616Z,86.63
2018-03-27T04:58:52.626Z,86.16
2018-03-27T04:59:52.641Z,86.16
2018-03-27T05:00:52.661Z,86.44
2018-03-27T05:01:52.687Z,86.16
2018-03-27T05:02:52.698Z,85.78
2018-03-27T05:03:52.723Z,85.87
2018-03-27T05:04:52.737Z,85.78
2018-03-27T05:05:52.751Z,86.35
2018-03-27T05:06:52.779Z,86.16
2018-03-27T05:07:52.799Z,86.72
2018-03-27T05:08:52.819Z,86.82
2018-03-27T05:09:52.829Z,87.30
2018-03-27T05:10:53.100Z,87.30
2018-03-27T05:11:52.876Z,86.82
2018-03-27T05:12:52.889Z,86.63
2018-03-27T05:13:52.910Z,86.35
2018-03-27T05:14:52.929Z,86.44
2018-03-27T05:15:53.189Z,86.91
2018-03-27T05:16:52.955Z,87.30
2018-03-27T05:17:52.981Z,87.01
2018-03-27T05:18:52.994Z,87.30
2018-03-27T05:19:53.015Z,87.39
2018-03-27T05:20:53.030Z,87.39
2018-03-27T05:21:53.048Z,87.49
2018-03-27T05:22:53.069Z,87.58
2018-03-27T05:23:53.089Z,87.49
2018-03-27T05:24:53.105Z,87.20
2018-03-27T05:25:53.376Z,87.68
2018-03-27T05:26:53.143Z,87.49
2018-03-27T05:27:53.169Z,87.30
2018-03-27T05:28:53.184Z,87.30
2018-03-27T05:29:53.203Z,86.91
2018-03-27T05:30:53.213Z,86.82
2018-03-27T05:31:53.234Z,86.72
2018-03-27T05:32:53.335Z,86.44
2018-03-27T05:33:53.272Z,86.91
2018-03-27T05:34:53.291Z,86.91
2018-03-27T05:35:53.308Z,87.11
2018-03-27T05:36:53.337Z,87.30
2018-03-27T05:37:53.348Z,87.11
2018-03-27T05:38:53.368Z,87.01
2018-03-27T05:39:53.387Z,87.01
2018-03-27T05:40:53.654Z,87.11
2018-03-27T05:41:53.424Z,86.91
2018-03-27T05:42:53.441Z,86.82
2018-03-27T05:43:53.458Z,86.35
2018-03-27T05:44:53.482Z,86.44
2018-03-27T05:45:53.493Z,86.44
2018-03-27T05:46:53.512Z,85.78
2018-03-27T05:47:53.533Z,86.16
2018-03-27T05:48:53.552Z,86.16
2018-03-27T05:49:53.569Z,85.97
2018-03-27T05:50:53.588Z,86.63
2018-03-27T05:51:53.612Z,86.16
2018-03-27T05:52:53.628Z,85.87
2018-03-27T05:53:53.642Z,85.44
2018-03-27T05:54:53.665Z,85.49
2018-03-27T05:55:53.722Z,85.40
2018-03-27T05:56:53.697Z,85.78
2018-03-27T05:57:53.718Z,85.78
2018-03-27T05:58:53.736Z,85.68
2018-03-27T05:59:53.757Z,86.35
2018-03-27T06:00:53.775Z,86.07
2018-03-27T06:01:53.802Z,85.30
2018-03-27T06:02:53.812Z,85.11
2018-03-27T06:03:53.831Z,85.30
2018-03-27T06:04:53.852Z,85.30
2018-03-27T06:05:53.866Z,85.30
2018-03-27T06:06:53.886Z,85.11
2018-03-27T06:07:53.906Z,85.40
2018-03-27T06:08:53.921Z,85.21
2018-03-27T06:09:53.942Z,85.49
2018-03-27T06:10:53.962Z,85.59
2018-03-27T06:11:53.983Z,84.97
2018-03-27T06:12:53.995Z,84.49
2018-03-27T06:13:54.020Z,84.59
2018-03-27T06:14:54.041Z,84.30
2018-03-27T06:15:54.052Z,83.92
2018-03-27T06:16:54.071Z,83.78
2018-03-27T06:17:54.096Z,83.97
2018-03-27T06:18:54.114Z,84.64
2018-03-27T06:19:54.136Z,84.45
2018-03-27T06:20:54.145Z,84.92
2018-03-27T06:21:54.169Z,84.64
2018-03-27T06:22:54.189Z,85.49
2018-03-27T06:23:54.209Z,85.30
2018-03-27T06:24:54.221Z,85.78
2018-03-27T06:25:54.241Z,85.68
2018-03-27T06:26:54.267Z,85.78
2018-03-27T06:27:54.284Z,85.30
2018-03-27T06:28:54.302Z,85.68
2018-03-27T06:29:54.318Z,85.40
2018-03-27T06:30:54.344Z,84.59
2018-03-27T06:31:54.355Z,84.45
2018-03-27T06:32:54.374Z,83.83
2018-03-27T06:33:54.420Z,83.16
2018-03-27T06:34:54.410Z,82.97
2018-03-27T06:35:54.429Z,83.26
2018-03-27T06:36:54.452Z,83.26
2018-03-27T06:37:54.464Z,82.59
2018-03-27T06:38:54.485Z,82.97
2018-03-27T06:39:54.505Z,83.16
2018-03-27T06:40:54.519Z,82.88
2018-03-27T06:41:54.540Z,82.69
2018-03-27T06:42:54.564Z,82.69
2018-03-27T06:43:54.580Z,82.59
2018-03-27T06:44:54.611Z,82.78
2018-03-27T06:45:54.619Z,83.16
2018-03-27T06:46:54.635Z,82.59
2018-03-27T06:47:54.659Z,82.12
2018-03-27T06:48:54.678Z,82.12
2018-03-27T06:49:54.694Z,82.03
2018-03-27T06:50:54.720Z,82.40
2018-03-27T06:51:54.731Z,82.69
2018-03-27T06:52:54.807Z,82.78
2018-03-27T06:53:54.770Z,82.69
2018-03-27T06:54:54.790Z,82.31
2018-03-27T06:55:54.809Z,82.03
2018-03-27T06:56:54.831Z,81.65
2018-03-27T06:57:54.851Z,81.74
2018-03-27T06:58:54.880Z,81.59
2018-03-27T06:59:54.896Z,80.93
2018-03-27T07:00:54.905Z,80.64
2018-03-27T07:01:54.929Z,79.69
2018-03-27T07:02:54.944Z,79.97
2018-03-27T07:03:54.964Z,79.79
2018-03-27T07:04:54.983Z,78.93
2018-03-27T07:05:55.007Z,79.12
2018-03-27T07:06:55.031Z,78.55
2018-03-27T07:07:55.043Z,78.45
2018-03-27T07:08:55.065Z,78.74
2018-03-27T07:09:55.090Z,77.98
2018-03-27T07:10:55.101Z,78.36
2018-03-27T07:11:55.161Z,78.93
2018-03-27T07:12:55.137Z,79.03
2018-03-27T07:13:55.159Z,79.03
2018-03-27T07:14:55.215Z,79.55
2018-03-27T07:15:55.199Z,79.55
2018-03-27T07:16:55.216Z,79.94
2018-03-27T07:17:55.236Z,80.41
2018-03-27T07:18:55.268Z,80.51
2018-03-27T07:19:55.277Z,80.13
2018-03-27T07:20:55.295Z,79.88
2018-03-27T07:21:55.314Z,79.60
2018-03-27T07:22:55.333Z,79.60
2018-03-27T07:23:55.351Z,79.12
2018-03-27T07:24:55.370Z,78.93
2018-03-27T07:25:55.392Z,78.93
2018-03-27T07:26:55.436Z,79.22
2018-03-27T07:27:55.450Z,78.93
2018-03-27T07:28:55.446Z,78.93
2018-03-27T07:29:55.471Z,78.93
2018-03-27T07:30:55.490Z,79.41
2018-03-27T07:31:55.511Z,78.93
2018-03-27T07:32:55.536Z,78.27
2018-03-27T07:33:55.551Z,78.17
2018-03-27T07:34:55.571Z,77.73
2018-03-27T07:35:55.590Z,77.73
2018-03-27T07:36:55.610Z,77.36
2018-03-27T07:37:55.636Z,76.88
2018-03-27T07:38:55.649Z,77.36
2018-03-27T07:39:55.666Z,76.59
2018-03-27T07:40:55.686Z,76.59
2018-03-27T07:41:55.707Z,75.93
2018-03-27T07:42:55.728Z,75.74
2018-03-27T07:43:55.779Z,75.64
2018-03-27T07:44:55.769Z,75.55
2018-03-27T07:45:55.788Z,75.26
2018-03-27T07:46:55.807Z,75.11
2018-03-27T07:47:55.829Z,75.40
2018-03-27T07:48:55.850Z,75.02
2018-03-27T07:49:55.865Z,74.35
2018-03-27T07:50:55.887Z,74.26
2018-03-27T07:51:55.907Z,74.82
2018-03-27T07:52:55.931Z,74.73
2018-03-27T07:53:55.947Z,74.31
2018-03-27T07:54:55.984Z,74.63
2018-03-27T07:55:55.985Z,75.07
2018-03-27T07:56:56.014Z,75.07
2018-03-27T07:57:56.031Z,74.82
2018-03-27T07:58:56.053Z,75.11
2018-03-27T07:59:56.077Z,74.16
2018-03-27T08:00:56.147Z,74.07
2018-03-27T08:01:56.110Z,73.49
2018-03-27T08:02:56.132Z,72.99
2018-03-27T08:03:56.150Z,72.64
2018-03-27T08:04:56.170Z,73.21
2018-03-27T08:05:56.191Z,72.92
2018-03-27T08:06:56.214Z,72.92
2018-03-27T08:07:56.234Z,73.30
2018-03-27T08:08:56.255Z,72.92
2018-03-27T08:09:56.282Z,72.64
2018-03-27T08:10:56.301Z,71.78
2018-03-27T08:11:56.317Z,71.78
2018-03-27T08:12:56.335Z,71.97
2018-03-27T08:13:56.355Z,71.88
2018-03-27T08:14:56.380Z,71.41
2018-03-27T08:15:56.398Z,71.88
2018-03-27T08:16:56.420Z,71.69
2018-03-27T08:17:56.448Z,72.07
2018-03-27T08:18:56.467Z,71.53
2018-03-27T08:19:56.483Z,70.87
2018-03-27T08:20:56.503Z,70.97
2018-03-27T08:21:56.526Z,70.58
2018-03-27T08:22:56.544Z,69.82
2018-03-27T08:23:56.651Z,69.82
2018-03-27T08:24:56.598Z,69.35
2018-03-27T08:25:56.617Z,70.01
2018-03-27T08:26:56.628Z,70.30
2018-03-27T08:27:56.679Z,70.30
2018-03-27T08:28:56.675Z,70.83
2018-03-27T08:29:56.693Z,70.97
2018-03-27T08:30:56.714Z,70.64
2018-03-27T08:31:56.733Z,71.31
2018-03-27T08:32:56.754Z,71.22
2018-03-27T08:33:56.783Z,70.49
2018-03-27T08:34:56.842Z,70.30
2018-03-27T08:35:56.814Z,70.20
2018-03-27T08:36:56.838Z,70.01
2018-03-27T08:37:56.859Z,69.06
2018-03-27T08:38:56.883Z,69.06
2018-03-27T08:39:56.904Z,68.87
2018-03-27T08:40:56.926Z,68.68
2018-03-27T08:41:56.944Z,68.30
2018-03-27T08:42:56.969Z,67.63
2018-03-27T08:43:56.992Z,67.86
2018-03-27T08:44:57.008Z,67.47
2018-03-27T08:45:57.030Z,67.63
2018-03-27T08:46:57.054Z,67.54
2018-03-27T08:47:57.077Z,67.54
2018-03-27T08:48:57.093Z,67.67
2018-03-27T08:49:57.123Z,67.73
2018-03-27T08:50:57.145Z,67.19
2018-03-27T08:51:57.159Z,66.72
2018-03-27T08:52:57.188Z,66.43
2018-03-27T08:53:57.212Z,66.62
2018-03-27T08:54:57.224Z,66.91
2018-03-27T08:55:57.255Z,66.91
2018-03-27T08:56:57.269Z,66.43
2018-03-27T08:57:57.295Z,65.48
2018-03-27T08:58:57.323Z,65.00
2018-03-27T08:59:57.336Z,65.38
2018-03-27T09:00:57.357Z,65.42
2018-03-27T09:01:57.379Z,64.94
2018-03-27T09:02:57.397Z,64.94
2018-03-27T09:03:57.423Z,64.72
2018-03-27T09:04:57.455Z,64.62
2018-03-27T09:05:57.467Z,65.13
2018-03-27T09:06:57.490Z,65.38
2018-03-27T09:07:57.515Z,64.94
2018-03-27T09:08:57.544Z,64.56
2018-03-27T09:09:57.555Z,63.70
2018-03-27T09:10:57.583Z,63.60
2018-03-27T09:11:57.601Z,62.85
2018-03-27T09:12:57.629Z,62.94
2018-03-27T09:13:57.645Z,63.04
2018-03-27T09:14:57.668Z,62.18
2018-03-27T09:15:57.687Z,62.27
2018-03-27T09:16:57.718Z,62.46
2018-03-27T09:17:57.735Z,62.27
2018-03-27T09:18:57.760Z,61.64
2018-03-27T09:19:57.776Z,61.99
2018-03-27T09:20:57.802Z,62.59
2018-03-27T09:21:57.822Z,62.59
2018-03-27T09:22:57.845Z,61.64
2018-03-27T09:23:57.866Z,61.83
2018-03-27T09:24:57.890Z,62.12
2018-03-27T09:25:57.920Z,61.83
2018-03-27T09:26:57.935Z,61.83
2018-03-27T09:27:57.961Z,61.73
2018-03-27T09:28:57.981Z,61.93
2018-03-27T09:29:58.005Z,61.73
2018-03-27T09:30:58.035Z,61.93
2018-03-27T09:31:58.055Z,61.07
2018-03-27T09:32:58.077Z,60.97
2018-03-27T09:33:58.093Z,60.62
2018-03-27T09:34:58.128Z,61.00
2018-03-27T09:35:58.144Z,60.91
2018-03-27T09:36:58.170Z,60.24
2018-03-27T09:37:58.194Z,60.59
2018-03-27T09:38:58.215Z,60.78
2018-03-27T09:39:58.239Z,61.07
2018-03-27T09:40:58.255Z,61.64
2018-03-27T09:41:58.282Z,61.54
2018-03-27T09:42:58.309Z,61.25
2018-03-27T09:43:58.328Z,61.64
2018-03-27T09:44:58.349Z,61.16
2018-03-27T09:45:58.375Z,60.43
2018-03-27T09:46:58.395Z,60.91
2018-03-27T09:47:58.420Z,61.10
2018-03-27T09:48:58.446Z,61.73
2018-03-27T09:49:58.469Z,62.21
2018-03-27T09:50:58.529Z,62.59
2018-03-27T09:51:58.510Z,62.49
2018-03-27T09:52:58.536Z,61.45
2018-03-27T09:53:58.554Z,62.02
2018-03-27T09:54:58.582Z,61.10
2018-03-27T09:55:58.604Z,61.29
2018-03-27T09:56:58.625Z,61.00
2018-03-27T09:57:58.653Z,60.65
2018-03-27T09:58:58.674Z,60.81
2018-03-27T09:59:58.698Z,60.52
2018-03-27T10:00:58.719Z,61.00
2018-03-27T10:01:58.740Z,61.41
2018-03-27T10:02:58.769Z,59.57
2018-03-27T10:03:58.795Z,59.95
2018-03-27T10:04:58.814Z,59.48
2018-03-27T10:05:58.842Z,59.95
2018-03-27T10:06:58.860Z,59.76
2018-03-27T10:07:58.890Z,60.14
2018-03-27T10:08:58.903Z,61.45
2018-03-27T10:09:58.929Z,60.49
2018-03-27T10:10:58.955Z,60.94
2018-03-27T10:11:58.974Z,61.51
2018-03-27T10:12:58.999Z,61.99
2018-03-27T10:13:59.023Z,63.48
2018-03-27T10:14:59.049Z,63.67
2018-03-27T10:15:59.072Z,63.67
2018-03-27T10:16:59.099Z,63.86
2018-03-27T10:17:59.113Z,63.29
2018-03-27T10:18:59.136Z,63.48
2018-03-27T10:19:59.158Z,63.20
2018-03-27T10:20:59.188Z,63.48
2018-03-27T10:21:59.208Z,63.67
2018-03-27T10:22:59.231Z,63.70
2018-03-27T10:23:59.255Z,63.42
2018-03-27T10:24:59.272Z,61.61
2018-03-27T10:25:59.297Z,61.32
2018-03-27T10:26:59.318Z,61.32
2018-03-27T10:27:59.338Z,59.89
2018-03-27T10:28:59.363Z,60.46
2018-03-27T10:29:59.377Z,60.85
2018-03-27T10:30:59.400Z,60.37
2018-03-27T10:31:59.423Z,59.61
2018-03-27T10:32:59.499Z,59.70
2018-03-27T10:33:59.471Z,60.18
2018-03-27T10:34:59.494Z,59.03
2018-03-27T10:35:59.513Z,57.42
2018-03-27T10:36:59.530Z,56.65
2018-03-27T10:37:59.560Z,56.68
2018-03-27T10:38:59.582Z,56.56
2018-03-27T10:39:59.602Z,56.87
2018-03-27T10:40:59.621Z,56.02
2018-03-27T10:41:59.653Z,54.88
2018-03-27T10:42:59.671Z,55.00
2018-03-27T10:43:59.688Z,54.04
2018-03-27T10:44:59.708Z,54.52
2018-03-27T10:45:59.731Z,54.07
2018-03-27T10:46:59.765Z,53.85
2018-03-27T10:47:59.780Z,54.64
2018-03-27T10:48:59.800Z,52.45
2018-03-27T10:49:59.819Z,51.40
2018-03-27T10:50:59.843Z,50.18
2018-03-27T10:51:59.876Z,49.71
2018-03-27T10:52:59.890Z,49.33
2018-03-27T10:53:59.912Z,48.88
2018-03-27T10:54:59.941Z,49.16
2018-03-27T10:55:59.957Z,49.73
2018-03-27T10:56:59.979Z,49.44
2018-03-27T10:58:00.004Z,49.28
2018-03-27T10:59:00.023Z,48.61
2018-03-27T11:00:00.056Z,47.85
2018-03-27T11:01:00.317Z,48.13
2018-03-27T11:02:00.092Z,48.61
2018-03-27T11:03:00.124Z,49.93
2018-03-27T11:04:00.156Z,51.74
2018-03-27T11:05:00.164Z,52.03
2018-03-27T11:06:00.190Z,52.67
2018-03-27T11:07:00.216Z,51.43
2018-03-27T11:08:00.242Z,50.21
2018-03-27T11:09:00.265Z,49.07
2018-03-27T11:10:00.341Z,49.44
2018-03-27T11:11:00.560Z,48.99
2018-03-27T11:12:00.336Z,48.49
2018-03-27T11:13:00.360Z,48.59
2018-03-27T11:14:00.380Z,48.75
2018-03-27T11:15:00.405Z,49.71
2018-03-27T11:16:00.436Z,50.85
2018-03-27T11:17:00.457Z,51.40
2018-03-27T11:18:00.478Z,51.68
2018-03-27T11:19:00.500Z,51.31
2018-03-27T11:20:00.526Z,51.78
2018-03-27T11:21:00.551Z,51.68
2018-03-27T11:22:00.579Z,51.59
2018-03-27T11:23:00.601Z,51.68
2018-03-27T11:24:00.625Z,51.68
2018-03-27T11:25:00.646Z,52.04
2018-03-27T11:26:00.676Z,52.04
2018-03-27T11:27:00.695Z,51.37
2018-03-27T11:28:00.720Z,51.47
2018-03-27T11:29:00.746Z,51.37
2018-03-27T11:30:00.773Z,51.28
2018-03-27T11:31:00.793Z,51.18
2018-03-27T11:32:00.819Z,50.99
2018-03-27T11:33:00.839Z,50.99
2018-03-27T11:34:00.870Z,50.99
2018-03-27T11:35:00.889Z,51.76
2018-03-27T11:36:00.910Z,51.85
2018-03-27T11:37:00.935Z,52.14
2018-03-27T11:38:00.957Z,52.23
2018-03-27T11:39:00.980Z,51.66
2018-03-27T11:40:01.006Z,52.14
2018-03-27T11:41:01.027Z,51.25
2018-03-27T11:42:01.052Z,51.73
2018-03-27T11:43:01.077Z,51.54
2018-03-27T11:44:01.107Z,50.78
2018-03-27T11:45:01.123Z,51.92
2018-03-27T11:46:01.144Z,51.92
2018-03-27T11:47:01.165Z,51.82
2018-03-27T11:48:01.195Z,52.40
2018-03-27T11:49:01.210Z,52.49
2018-03-27T11:50:01.235Z,52.68
2018-03-27T11:51:01.264Z,52.68
2018-03-27T11:52:01.288Z,52.40
2018-03-27T11:53:01.308Z,52.52
2018-03-27T11:54:01.328Z,52.23
2018-03-27T11:55:01.350Z,51.95
2018-03-27T11:56:01.377Z,51.85
2018-03-27T11:57:01.398Z,50.71
2018-03-27T11:58:01.422Z,49.85
2018-03-27T11:59:01.441Z,48.42
2018-03-27T12:00:01.473Z,48.61
2018-03-27T12:01:01.488Z,47.66
2018-03-27T12:02:01.509Z,47.66
2018-03-27T12:03:01.535Z,47.18
2018-03-27T12:04:01.553Z,47.28
2018-03-27T12:05:01.582Z,47.37
2018-03-27T12:06:01.614Z,47.28
2018-03-27T12:07:01.642Z,46.82
2018-03-27T12:08:01.652Z,45.87
2018-03-27T12:09:01.668Z,45.75
2018-03-27T12:10:01.694Z,45.47
2018-03-27T12:11:01.713Z,45.37
2018-03-27T12:12:01.738Z,46.34
2018-03-27T12:13:01.762Z,45.87
2018-03-27T12:14:01.782Z,45.87
2018-03-27T12:15:01.807Z,45.58
2018-03-27T12:16:01.828Z,45.10
2018-03-27T12:17:01.852Z,45.10
2018-03-27T12:18:01.877Z,44.65
2018-03-27T12:19:01.924Z,43.53
2018-03-27T12:20:01.927Z,41.11
2018-03-27T12:21:01.950Z,35.38
2018-03-27T12:22:01.971Z,29.97
2018-03-27T12:23:01.997Z,25.71
2018-03-27T12:24:02.019Z,24.24
2018-03-27T12:25:02.045Z,24.96
2018-03-27T12:26:02.068Z,26.94
2018-03-27T12:27:02.096Z,28.35
2018-03-27T12:28:02.129Z,29.02
2018-03-27T12:29:02.147Z,29.97
2018-03-27T12:30:02.173Z,31.09
2018-03-27T12:31:02.201Z,32.14
2018-03-27T12:32:02.236Z,32.89
2018-03-27T12:33:02.251Z,32.79
2018-03-27T12:34:02.285Z,34.11
2018-03-27T12:35:02.308Z,33.52
2018-03-27T12:36:02.333Z,33.33
2018-03-27T12:37:02.364Z,32.95
2018-03-27T12:38:02.390Z,32.86
2018-03-27T12:39:02.416Z,32.95
2018-03-27T12:40:02.440Z,32.28
2018-03-27T12:41:02.464Z,32.57
2018-03-27T12:42:02.491Z,32.86
2018-03-27T12:43:02.523Z,33.06
2018-03-27T12:44:02.541Z,32.68
2018-03-27T12:45:02.575Z,32.78
2018-03-27T12:46:02.603Z,31.63
2018-03-27T12:47:02.622Z,31.72
2018-03-27T12:48:02.655Z,32.47
2018-03-27T12:49:02.680Z,31.99
2018-03-27T12:50:02.703Z,31.99
2018-03-27T12:51:02.734Z,31.99
2018-03-27T12:52:02.758Z,32.47
2018-03-27T12:53:02.776Z,32.66